Aeroporto :
LOGIN :

Iscrizione | Disclaimer

   EN    FR    IT 

 










Sommario :    VFR   VFR Marginale   IFR   IFR Intensivo   IFR Molto Intensivo
Visibilità : 
Base nubi : 
>= 8 km
>= 3000ft
5 / 8 km
1000 / 3000 ft
1500m / 5 km
500 / 1000 ft
800 / 1500m
200 / 500 ft
< 800m
< 200 ft
Simboli :   Temporali  Nebbia  Neve Forte  Precipitazioni Forti  Vento > 20 kt
SIGMETs :   Varie  Temporali  Ghiacco  Turbolenza  Onda orograficha  Ceneri Vulcaniche







- Altitudine del aeroporto : 0 ft


ETEB - Ansbach Army Heliport

ULTIMO METAR :
  • 210721Z 25002KT 9999 NSW FEW001 13/12 A3043 RMK AO2 SLP301 WND DATA ESTMD ALSTG/SLP ESTMD T013001180 $

METARs OBSOLETI :
  • 210656Z 25002KT 6000 BR FEW001 12/11 A3043 RMK AO2 SLP302 WND DATA ESTMD ALSTG/SLP ESTMD T01220110 $
  • 210642Z 27002KT 1600 BR FEW001 11/10 A3043 RMK AO2 SLP302 WND DATA ESTMD ALSTG/SLP ESTMD T01140103 $
  • 210620Z 26003KT 0600 FG BKN001 11/10 A3043 RMK AO2 SLP304 WND DATA ESTMD ALSTG ESTMD T01090096 $
  • 210556Z 29001KT M400 FG VV001 10/09 A3043 RMK AO2 SLP304 WND DATA ESTMD ALSTG ESTMD T00970085 10129 20115 52012 $
  • 210456Z 23003KT M400 FG VV001 09/08 A3040 RMK AO2 SLP295 WND DATA ESTMD T00900078 $

TAF TAF ETEB
Valido dal 21 a 05 ore il 22 a 11 ore UTC


210500Z 2105/2211 VRB03KT 0400 FG VV001 QNH3039INS
BECMG 2106/2107 VRB06KT 9999 NSW FEW010 QNH3036INS
BECMG 2107/2108 06006KT 9999 SKC QNH3033INS
BECMG 2200/2201 VRB03KT 8000 BR FEW030 QNH3032INS
BECMG 2207/2208 08009KT 9999 NSW SKC QNH3031INS TX19/2115Z TN12/2203Z
Nessun NOTAM noto per questo aeroporto.



MetMap, La meteo Aeronautica in un colpo d'occhio ! - Copyright ORBIFLY Dicembre 2007 - Disclaimer

ORBIFLY MET'MAP TEAM :

Programmazione e sviluppo : Alexandra Zaïnal
Concezione e sviluppo : Baudouin d'Aumeries
Co-Programmazione e sviluppo : Marc-Olivier Méhu
Supporto tecnico e logistico : Manuel Goepfert
Aiuto per la traduzione : Arnaldo La Scala

Contatto : metmap@orbifly.com




FONTI E CREDITI :

   NOAA